sensor_id;sensor_type;location;lat;lon;timestamp;pressure;altitude;pressure_sealevel;temperature;humidity
23261;BME280;11799;47.740;-3.390;2023-04-23T00:00:47;100353.75;;;13.03;100.00
23261;BME280;11799;47.740;-3.390;2023-04-23T00:03:14;100335.03;;;13.05;100.00
23261;BME280;11799;47.740;-3.390;2023-04-23T00:05:44;100335.03;;;13.05;100.00
23261;BME280;11799;47.740;-3.390;2023-04-23T00:08:09;100337.00;;;13.03;100.00
23261;BME280;11799;47.740;-3.390;2023-04-23T00:10:36;100327.25;;;13.03;100.00
23261;BME280;11799;47.740;-3.390;2023-04-23T00:13:02;100332.53;;;13.03;100.00
23261;BME280;11799;47.740;-3.390;2023-04-23T00:15:28;100332.53;;;13.03;100.00
23261;BME280;11799;47.740;-3.390;2023-04-23T00:17:54;100331.56;;;13.04;100.00
23261;BME280;11799;47.740;-3.390;2023-04-23T00:20:20;100328.06;;;13.04;100.00
23261;BME280;11799;47.740;-3.390;2023-04-23T00:22:46;100317.63;;;13.02;100.00
23261;BME280;11799;47.740;-3.390;2023-04-23T00:25:11;100317.06;;;12.99;100.00
23261;BME280;11799;47.740;-3.390;2023-04-23T00:27:37;100327.69;;;12.99;100.00
23261;BME280;11799;47.740;-3.390;2023-04-23T00:30:03;100320.00;;;12.96;100.00
23261;BME280;11799;47.740;-3.390;2023-04-23T00:32:29;100324.78;;;12.92;100.00
23261;BME280;11799;47.740;-3.390;2023-04-23T00:34:55;100324.53;;;12.85;100.00
23261;BME280;11799;47.740;-3.390;2023-04-23T00:37:21;100320.09;;;12.76;100.00
23261;BME280;11799;47.740;-3.390;2023-04-23T00:39:47;100324.47;;;12.68;100.00
23261;BME280;11799;47.740;-3.390;2023-04-23T00:42:14;100304.84;;;12.61;100.00
23261;BME280;11799;47.740;-3.390;2023-04-23T00:44:42;100308.06;;;12.54;100.00
23261;BME280;11799;47.740;-3.390;2023-04-23T00:47:08;100293.88;;;12.46;100.00
23261;BME280;11799;47.740;-3.390;2023-04-23T00:49:35;100298.47;;;12.44;100.00
23261;BME280;11799;47.740;-3.390;2023-04-23T00:52:01;100301.84;;;12.36;100.00
23261;BME280;11799;47.740;-3.390;2023-04-23T00:54:26;100290.97;;;12.30;100.00
23261;BME280;11799;47.740;-3.390;2023-04-23T00:56:54;100294.47;;;12.30;100.00
23261;BME280;11799;47.740;-3.390;2023-04-23T00:59:20;100288.75;;;12.25;100.00
23261;BME280;11799;47.740;-3.390;2023-04-23T01:01:46;100293.22;;;12.24;100.00
23261;BME280;11799;47.740;-3.390;2023-04-23T01:04:15;100283.88;;;12.20;100.00
23261;BME280;11799;47.740;-3.390;2023-04-23T01:06:42;100273.72;;;12.16;100.00
23261;BME280;11799;47.740;-3.390;2023-04-23T01:09:10;100274.47;;;12.08;100.00
23261;BME280;11799;47.740;-3.390;2023-04-23T01:11:38;100265.69;;;11.98;100.00
23261;BME280;11799;47.740;-3.390;2023-04-23T01:14:04;100252.34;;;11.90;100.00
23261;BME280;11799;47.740;-3.390;2023-04-23T01:16:30;100260.41;;;11.88;100.00
23261;BME280;11799;47.740;-3.390;2023-04-23T01:18:55;100254.28;;;11.88;100.00
23261;BME280;11799;47.740;-3.390;2023-04-23T01:21:23;100255.56;;;11.84;100.00
23261;BME280;11799;47.740;-3.390;2023-04-23T01:23:49;100261.81;;;11.83;100.00
23261;BME280;11799;47.740;-3.390;2023-04-23T01:26:15;100254.16;;;11.80;100.00
23261;BME280;11799;47.740;-3.390;2023-04-23T01:28:43;100249.25;;;11.75;100.00
23261;BME280;11799;47.740;-3.390;2023-04-23T01:31:10;100247.72;;;11.73;100.00
23261;BME280;11799;47.740;-3.390;2023-04-23T01:33:41;100248.00;;;11.70;100.00
23261;BME280;11799;47.740;-3.390;2023-04-23T01:36:07;100246.75;;;11.64;100.00
23261;BME280;11799;47.740;-3.390;2023-04-23T01:38:35;100228.94;;;11.56;100.00
23261;BME280;11799;47.740;-3.390;2023-04-23T01:41:02;100239.97;;;11.52;100.00
23261;BME280;11799;47.740;-3.390;2023-04-23T01:43:28;100241.63;;;11.53;100.00
23261;BME280;11799;47.740;-3.390;2023-04-23T01:45:54;100242.31;;;11.45;100.00
23261;BME280;11799;47.740;-3.390;2023-04-23T01:48:19;100228.41;;;11.43;100.00
23261;BME280;11799;47.740;-3.390;2023-04-23T01:50:47;100227.72;;;11.41;100.00
23261;BME280;11799;47.740;-3.390;2023-04-23T01:53:12;100214.50;;;11.32;100.00
23261;BME280;11799;47.740;-3.390;2023-04-23T01:55:39;100211.84;;;11.32;100.00
23261;BME280;11799;47.740;-3.390;2023-04-23T01:58:06;100214.34;;;11.23;100.00
23261;BME280;11799;47.740;-3.390;2023-04-23T02:00:32;100206.69;;;11.20;100.00
23261;BME280;11799;47.740;-3.390;2023-04-23T02:02:58;100201.53;;;11.19;100.00
23261;BME280;11799;47.740;-3.390;2023-04-23T02:05:25;100196.25;;;11.19;100.00
23261;BME280;11799;47.740;-3.390;2023-04-23T02:07:54;100177.63;;;11.20;100.00
23261;BME280;11799;47.740;-3.390;2023-04-23T02:10:19;100190.97;;;11.19;100.00
23261;BME280;11799;47.740;-3.390;2023-04-23T02:12:46;100192.63;;;11.20;100.00
23261;BME280;11799;47.740;-3.390;2023-04-23T02:15:12;100167.19;;;11.19;100.00
23261;BME280;11799;47.740;-3.390;2023-04-23T02:17:38;100161.06;;;11.18;100.00
23261;BME280;11799;47.740;-3.390;2023-04-23T02:20:06;100153.97;;;11.19;100.00
23261;BME280;11799;47.740;-3.390;2023-04-23T02:22:35;100143.94;;;11.13;100.00
23261;BME280;11799;47.740;-3.390;2023-04-23T02:25:01;100148.13;;;11.25;100.00
23261;BME280;11799;47.740;-3.390;2023-04-23T02:27:26;100134.78;;;11.27;100.00
23261;BME280;11799;47.740;-3.390;2023-04-23T02:29:52;100134.63;;;11.28;100.00
23261;BME280;11799;47.740;-3.390;2023-04-23T02:32:18;100126.72;;;11.28;100.00
23261;BME280;11799;47.740;-3.390;2023-04-23T02:34:44;100128.50;;;11.28;100.00
23261;BME280;11799;47.740;-3.390;2023-04-23T02:37:10;100130.19;;;11.29;100.00
23261;BME280;11799;47.740;-3.390;2023-04-23T02:39:36;100124.75;;;11.30;100.00
23261;BME280;11799;47.740;-3.390;2023-04-23T02:42:05;100129.22;;;11.30;100.00
23261;BME280;11799;47.740;-3.390;2023-04-23T02:44:31;100108.47;;;11.25;100.00
23261;BME280;11799;47.740;-3.390;2023-04-23T02:46:57;100083.16;;;11.22;100.00
23261;BME280;11799;47.740;-3.390;2023-04-23T02:49:22;100108.19;;;11.28;100.00
23261;BME280;11799;47.740;-3.390;2023-04-23T02:51:48;100121.00;;;11.33;100.00
23261;BME280;11799;47.740;-3.390;2023-04-23T02:54:14;100130.47;;;11.35;100.00
23261;BME280;11799;47.740;-3.390;2023-04-23T02:56:40;100117.09;;;11.37;100.00
23261;BME280;11799;47.740;-3.390;2023-04-23T02:59:06;100097.91;;;11.25;100.00
23261;BME280;11799;47.740;-3.390;2023-04-23T03:01:32;100085.53;;;11.25;100.00
23261;BME280;11799;47.740;-3.390;2023-04-23T03:03:59;100056.19;;;11.29;100.00
23261;BME280;11799;47.740;-3.390;2023-04-23T03:06:25;100051.75;;;11.19;100.00
23261;BME280;11799;47.740;-3.390;2023-04-23T03:08:50;100062.16;;;11.21;100.00
23261;BME280;11799;47.740;-3.390;2023-04-23T03:11:16;100051.75;;;11.19;100.00
23261;BME280;11799;47.740;-3.390;2023-04-23T03:13:42;100047.72;;;11.15;100.00
23261;BME280;11799;47.740;-3.390;2023-04-23T03:16:08;100031.88;;;11.06;100.00
23261;BME280;11799;47.740;-3.390;2023-04-23T03:18:33;100035.06;;;11.00;100.00
23261;BME280;11799;47.740;-3.390;2023-04-23T03:21:00;100012.81;;;11.02;100.00
23261;BME280;11799;47.740;-3.390;2023-04-23T03:23:26;100009.25;;;10.94;100.00
23261;BME280;11799;47.740;-3.390;2023-04-23T03:25:51;100001.31;;;10.94;100.00
23261;BME280;11799;47.740;-3.390;2023-04-23T03:28:17;99994.22;;;10.94;100.00
23261;BME280;11799;47.740;-3.390;2023-04-23T03:30:43;99978.53;;;10.93;100.00
23261;BME280;11799;47.740;-3.390;2023-04-23T03:33:09;99977.53;;;10.94;100.00
23261;BME280;11799;47.740;-3.390;2023-04-23T03:35:34;99980.03;;;10.95;100.00
23261;BME280;11799;47.740;-3.390;2023-04-23T03:38:03;99967.34;;;10.99;100.00
23261;BME280;11799;47.740;-3.390;2023-04-23T03:40:29;99962.91;;;10.99;100.00
23261;BME280;11799;47.740;-3.390;2023-04-23T03:42:58;99938.00;;;11.02;100.00
23261;BME280;11799;47.740;-3.390;2023-04-23T03:45:44;99943.00;;;11.05;100.00
23261;BME280;11799;47.740;-3.390;2023-04-23T03:48:09;99946.63;;;11.04;100.00
23261;BME280;11799;47.740;-3.390;2023-04-23T03:50:35;99940.50;;;11.03;100.00
23261;BME280;11799;47.740;-3.390;2023-04-23T03:53:12;99926.31;;;11.04;100.00
23261;BME280;11799;47.740;-3.390;2023-04-23T03:56:07;99918.41;;;11.04;100.00
23261;BME280;11799;47.740;-3.390;2023-04-23T03:58:39;99915.47;;;11.07;100.00
23261;BME280;11799;47.740;-3.390;2023-04-23T04:01:05;99919.63;;;11.10;100.00
23261;BME280;11799;47.740;-3.390;2023-04-23T04:03:31;99910.72;;;11.11;100.00
23261;BME280;11799;47.740;-3.390;2023-04-23T04:05:56;99900.69;;;11.14;100.00
23261;BME280;11799;47.740;-3.390;2023-04-23T04:08:25;99903.09;;;11.08;100.00
23261;BME280;11799;47.740;-3.390;2023-04-23T04:10:51;99888.78;;;11.01;100.00
23261;BME280;11799;47.740;-3.390;2023-04-23T04:13:17;99910.41;;;10.86;100.00
23261;BME280;11799;47.740;-3.390;2023-04-23T04:15:42;99907.09;;;10.84;100.00
23261;BME280;11799;47.740;-3.390;2023-04-23T04:18:08;99934.47;;;10.83;100.00
23261;BME280;11799;47.740;-3.390;2023-04-23T04:20:33;99945.88;;;10.74;100.00
23261;BME280;11799;47.740;-3.390;2023-04-23T04:22:59;99943.66;;;10.70;100.00
23261;BME280;11799;47.740;-3.390;2023-04-23T04:25:24;99937.13;;;10.64;100.00
23261;BME280;11799;47.740;-3.390;2023-04-23T04:27:53;99936.31;;;10.64;100.00
23261;BME280;11799;47.740;-3.390;2023-04-23T04:30:18;99929.22;;;10.54;100.00
23261;BME280;11799;47.740;-3.390;2023-04-23T04:32:44;99922.56;;;10.41;100.00
23261;BME280;11799;47.740;-3.390;2023-04-23T04:35:10;99916.06;;;10.35;100.00
23261;BME280;11799;47.740;-3.390;2023-04-23T04:37:38;99915.38;;;10.23;100.00
23261;BME280;11799;47.740;-3.390;2023-04-23T04:40:05;99920.78;;;10.22;100.00
23261;BME280;11799;47.740;-3.390;2023-04-23T04:42:32;99920.59;;;10.14;100.00
23261;BME280;11799;47.740;-3.390;2023-04-23T04:44:57;99921.56;;;10.13;100.00
23261;BME280;11799;47.740;-3.390;2023-04-23T04:47:24;99916.97;;;10.05;100.00
23261;BME280;11799;47.740;-3.390;2023-04-23T04:49:50;99913.50;;;10.05;100.00
23261;BME280;11799;47.740;-3.390;2023-04-23T04:52:16;99904.22;;;10.01;100.00
23261;BME280;11799;47.740;-3.390;2023-04-23T04:54:42;99913.94;;;10.00;100.00
23261;BME280;11799;47.740;-3.390;2023-04-23T04:57:07;99908.91;;;9.97;100.00
23261;BME280;11799;47.740;-3.390;2023-04-23T04:59:33;99910.72;;;9.97;100.00
23261;BME280;11799;47.740;-3.390;2023-04-23T05:01:59;99923.91;;;9.97;100.00
23261;BME280;11799;47.740;-3.390;2023-04-23T05:04:25;99916.84;;;9.97;100.00
23261;BME280;11799;47.740;-3.390;2023-04-23T05:06:50;99915.03;;;9.98;100.00
23261;BME280;11799;47.740;-3.390;2023-04-23T05:09:16;99922.38;;;9.94;100.00
23261;BME280;11799;47.740;-3.390;2023-04-23T05:11:41;99921.81;;;9.90;100.00
23261;BME280;11799;47.740;-3.390;2023-04-23T05:14:07;99911.53;;;9.87;100.00
23261;BME280;11799;47.740;-3.390;2023-04-23T05:16:33;99914.75;;;9.91;100.00
23261;BME280;11799;47.740;-3.390;2023-04-23T05:18:59;99911.84;;;9.94;100.00
23261;BME280;11799;47.740;-3.390;2023-04-23T05:21:25;99926.00;;;9.93;100.00
23261;BME280;11799;47.740;-3.390;2023-04-23T05:23:55;99928.06;;;9.89;100.00
23261;BME280;11799;47.740;-3.390;2023-04-23T05:26:21;99938.75;;;9.88;100.00
23261;BME280;11799;47.740;-3.390;2023-04-23T05:28:46;99936.25;;;9.86;100.00
23261;BME280;11799;47.740;-3.390;2023-04-23T05:31:12;99940.97;;;9.83;100.00
23261;BME280;11799;47.740;-3.390;2023-04-23T05:33:38;99945.97;;;9.86;100.00
23261;BME280;11799;47.740;-3.390;2023-04-23T05:36:03;99954.44;;;9.80;100.00
23261;BME280;11799;47.740;-3.390;2023-04-23T05:38:29;99972.59;;;9.83;100.00
23261;BME280;11799;47.740;-3.390;2023-04-23T05:40:54;99979.28;;;9.77;100.00
23261;BME280;11799;47.740;-3.390;2023-04-23T05:43:20;99985.53;;;9.76;100.00
23261;BME280;11799;47.740;-3.390;2023-04-23T05:45:45;99987.31;;;9.76;100.00
23261;BME280;11799;47.740;-3.390;2023-04-23T05:48:11;99993.31;;;9.78;100.00
23261;BME280;11799;47.740;-3.390;2023-04-23T05:50:37;99999.66;;;9.75;100.00
23261;BME280;11799;47.740;-3.390;2023-04-23T05:53:02;100010.22;;;9.75;100.00
23261;BME280;11799;47.740;-3.390;2023-04-23T05:55:28;100004.94;;;9.75;100.00
23261;BME280;11799;47.740;-3.390;2023-04-23T05:57:53;100011.06;;;9.76;100.00
23261;BME280;11799;47.740;-3.390;2023-04-23T06:00:19;100016.59;;;9.73;100.00
23261;BME280;11799;47.740;-3.390;2023-04-23T06:02:45;100017.44;;;9.73;100.00
23261;BME280;11799;47.740;-3.390;2023-04-23T06:05:10;100020.91;;;9.74;100.00
23261;BME280;11799;47.740;-3.390;2023-04-23T06:07:36;100030.91;;;9.80;100.00
23261;BME280;11799;47.740;-3.390;2023-04-23T06:10:03;100029.78;;;9.82;100.00
23261;BME280;11799;47.740;-3.390;2023-04-23T06:12:30;100037.84;;;9.81;100.00
23261;BME280;11799;47.740;-3.390;2023-04-23T06:14:56;100036.06;;;9.81;100.00
23261;BME280;11799;47.740;-3.390;2023-04-23T06:17:22;100046.16;;;9.86;100.00
23261;BME280;11799;47.740;-3.390;2023-04-23T06:19:48;100053.13;;;9.87;100.00
23261;BME280;11799;47.740;-3.390;2023-04-23T06:22:13;100051.06;;;9.90;100.00
23261;BME280;11799;47.740;-3.390;2023-04-23T06:24:39;100054.38;;;9.92;100.00
23261;BME280;11799;47.740;-3.390;2023-04-23T06:27:04;100061.34;;;9.93;100.00
23261;BME280;11799;47.740;-3.390;2023-04-23T06:29:34;100061.91;;;9.97;100.00
23261;BME280;11799;47.740;-3.390;2023-04-23T06:32:03;100068.59;;;10.01;100.00
23261;BME280;11799;47.740;-3.390;2023-04-23T06:34:29;100067.63;;;10.02;100.00
23261;BME280;11799;47.740;-3.390;2023-04-23T06:36:55;100079.56;;;10.06;100.00
23261;BME280;11799;47.740;-3.390;2023-04-23T06:39:20;100083.91;;;10.17;100.00
23261;BME280;11799;47.740;-3.390;2023-04-23T06:41:46;100089.25;;;10.27;100.00
23261;BME280;11799;47.740;-3.390;2023-04-23T06:44:29;100089.53;;;10.33;100.00
23261;BME280;11799;47.740;-3.390;2023-04-23T06:46:55;100103.72;;;10.42;100.00
23261;BME280;11799;47.740;-3.390;2023-04-23T06:49:20;100087.59;;;10.45;100.00
23261;BME280;11799;47.740;-3.390;2023-04-23T06:51:46;100105.25;;;10.54;100.00
23261;BME280;11799;47.740;-3.390;2023-04-23T06:54:12;100106.53;;;10.59;100.00
23261;BME280;11799;47.740;-3.390;2023-04-23T06:56:38;100100.84;;;10.64;100.00
23261;BME280;11799;47.740;-3.390;2023-04-23T06:59:03;100104.03;;;10.68;100.00
23261;BME280;11799;47.740;-3.390;2023-04-23T07:01:31;100113.50;;;10.70;100.00
23261;BME280;11799;47.740;-3.390;2023-04-23T07:03:56;100109.19;;;10.69;100.00
23261;BME280;11799;47.740;-3.390;2023-04-23T07:06:22;100114.88;;;10.74;100.00
23261;BME280;11799;47.740;-3.390;2023-04-23T07:08:47;100115.44;;;10.78;100.00
23261;BME280;11799;47.740;-3.390;2023-04-23T07:11:13;100112.25;;;10.84;100.00
23261;BME280;11799;47.740;-3.390;2023-04-23T07:13:39;100111.00;;;10.88;100.00
23261;BME280;11799;47.740;-3.390;2023-04-23T07:16:04;100107.00;;;10.94;100.00
23261;BME280;11799;47.740;-3.390;2023-04-23T07:18:30;100108.22;;;10.99;100.00
23261;BME280;11799;47.740;-3.390;2023-04-23T07:20:56;100111.97;;;11.06;100.00
23261;BME280;11799;47.740;-3.390;2023-04-23T07:23:21;100115.72;;;11.13;100.00
23261;BME280;11799;47.740;-3.390;2023-04-23T07:25:47;100120.16;;;11.22;100.00
23261;BME280;11799;47.740;-3.390;2023-04-23T07:28:13;100123.09;;;11.29;100.00
23261;BME280;11799;47.740;-3.390;2023-04-23T07:30:38;100121.13;;;11.31;100.00
23261;BME280;11799;47.740;-3.390;2023-04-23T07:33:04;100109.59;;;11.32;100.00
23261;BME280;11799;47.740;-3.390;2023-04-23T07:35:29;100107.09;;;11.31;100.00
23261;BME280;11799;47.740;-3.390;2023-04-23T07:37:55;100115.16;;;11.29;100.00
23261;BME280;11799;47.740;-3.390;2023-04-23T07:40:22;100127.41;;;11.30;100.00
23261;BME280;11799;47.740;-3.390;2023-04-23T07:42:49;100123.91;;;11.30;100.00
23261;BME280;11799;47.740;-3.390;2023-04-23T07:45:14;100124.63;;;11.32;100.00
23261;BME280;11799;47.740;-3.390;2023-04-23T07:47:40;100124.75;;;11.30;100.00
23261;BME280;11799;47.740;-3.390;2023-04-23T07:50:06;100136.44;;;11.37;100.00
23261;BME280;11799;47.740;-3.390;2023-04-23T07:52:32;100127.38;;;11.40;100.00
23261;BME280;11799;47.740;-3.390;2023-04-23T07:54:57;100129.34;;;11.47;100.00
23261;BME280;11799;47.740;-3.390;2023-04-23T07:57:23;100116.53;;;11.52;100.00
23261;BME280;11799;47.740;-3.390;2023-04-23T07:59:48;100128.56;;;11.65;100.00
23261;BME280;11799;47.740;-3.390;2023-04-23T08:02:14;100128.69;;;11.73;100.00
23261;BME280;11799;47.740;-3.390;2023-04-23T08:04:39;100129.25;;;11.86;100.00
23261;BME280;11799;47.740;-3.390;2023-04-23T08:07:05;100139.13;;;11.94;100.00
23261;BME280;11799;47.740;-3.390;2023-04-23T08:09:31;100143.44;;;11.95;100.00
23261;BME280;11799;47.740;-3.390;2023-04-23T08:11:56;100139.25;;;11.92;100.00
23261;BME280;11799;47.740;-3.390;2023-04-23T08:14:22;100148.44;;;11.98;100.00
23261;BME280;11799;47.740;-3.390;2023-04-23T08:16:48;100152.03;;;12.06;100.00
23261;BME280;11799;47.740;-3.390;2023-04-23T08:19:13;100151.28;;;12.14;100.00
23261;BME280;11799;47.740;-3.390;2023-04-23T08:21:39;100154.47;;;12.17;100.00
23261;BME280;11799;47.740;-3.390;2023-04-23T08:24:04;100151.63;;;12.29;100.00
23261;BME280;11799;47.740;-3.390;2023-04-23T08:26:32;100150.81;;;12.28;100.00
23261;BME280;11799;47.740;-3.390;2023-04-23T08:28:58;100143.94;;;12.35;100.00
23261;BME280;11799;47.740;-3.390;2023-04-23T08:31:25;100153.50;;;12.46;100.00
23261;BME280;11799;47.740;-3.390;2023-04-23T08:33:51;100137.78;;;12.44;100.00
23261;BME280;11799;47.740;-3.390;2023-04-23T08:36:16;100144.16;;;12.51;100.00
23261;BME280;11799;47.740;-3.390;2023-04-23T08:38:42;100137.28;;;12.59;100.00
23261;BME280;11799;47.740;-3.390;2023-04-23T08:41:09;100141.16;;;12.64;100.00
23261;BME280;11799;47.740;-3.390;2023-04-23T08:43:45;100157.28;;;12.71;100.00
23261;BME280;11799;47.740;-3.390;2023-04-23T08:46:12;100159.47;;;12.75;100.00
23261;BME280;11799;47.740;-3.390;2023-04-23T08:48:40;100160.97;;;12.78;100.00
23261;BME280;11799;47.740;-3.390;2023-04-23T08:51:09;100161.66;;;12.80;100.00
23261;BME280;11799;47.740;-3.390;2023-04-23T08:53:36;100164.94;;;12.92;100.00
23261;BME280;11799;47.740;-3.390;2023-04-23T08:56:04;100168.50;;;13.00;100.00
23261;BME280;11799;47.740;-3.390;2023-04-23T08:58:31;100170.03;;;13.03;100.00
23261;BME280;11799;47.740;-3.390;2023-04-23T09:00:57;100163.72;;;13.04;100.00
23261;BME280;11799;47.740;-3.390;2023-04-23T09:03:23;100171.22;;;13.08;100.00
23261;BME280;11799;47.740;-3.390;2023-04-23T09:05:50;100171.09;;;13.10;100.00
23261;BME280;11799;47.740;-3.390;2023-04-23T09:08:21;100176.66;;;13.16;100.00
23261;BME280;11799;47.740;-3.390;2023-04-23T09:10:47;100169.53;;;13.17;100.00
23261;BME280;11799;47.740;-3.390;2023-04-23T09:13:15;100170.75;;;13.23;100.00
23261;BME280;11799;47.740;-3.390;2023-04-23T09:15:40;100181.72;;;13.28;100.00
23261;BME280;11799;47.740;-3.390;2023-04-23T09:18:08;100181.63;;;13.37;100.00
23261;BME280;11799;47.740;-3.390;2023-04-23T09:20:34;100178.22;;;13.45;100.00
23261;BME280;11799;47.740;-3.390;2023-04-23T09:23:05;100187.06;;;13.53;100.00
23261;BME280;11799;47.740;-3.390;2023-04-23T09:25:31;100188.88;;;13.53;100.00
23261;BME280;11799;47.740;-3.390;2023-04-23T09:27:58;100201.09;;;13.46;100.00
23261;BME280;11799;47.740;-3.390;2023-04-23T09:30:25;100195.88;;;13.36;100.00
23261;BME280;11799;47.740;-3.390;2023-04-23T09:32:52;100210.72;;;13.29;100.00
23261;BME280;11799;47.740;-3.390;2023-04-23T09:35:18;100210.06;;;13.27;100.00
23261;BME280;11799;47.740;-3.390;2023-04-23T09:37:46;100206.56;;;13.27;100.00
23261;BME280;11799;47.740;-3.390;2023-04-23T09:40:14;100204.41;;;13.30;100.00
23261;BME280;11799;47.740;-3.390;2023-04-23T09:42:39;100207.75;;;13.32;100.00
23261;BME280;11799;47.740;-3.390;2023-04-23T09:45:07;100221.84;;;13.33;100.00
23261;BME280;11799;47.740;-3.390;2023-04-23T09:47:34;100220.56;;;13.37;100.00
23261;BME280;11799;47.740;-3.390;2023-04-23T09:50:02;100222.09;;;13.39;100.00
23261;BME280;11799;47.740;-3.390;2023-04-23T09:52:30;100221.56;;;13.36;100.00
23261;BME280;11799;47.740;-3.390;2023-04-23T09:54:57;100227.84;;;13.52;100.00
23261;BME280;11799;47.740;-3.390;2023-04-23T09:57:24;100238.97;;;13.74;100.00
23261;BME280;11799;47.740;-3.390;2023-04-23T09:59:50;100247.53;;;13.68;100.00
23261;BME280;11799;47.740;-3.390;2023-04-23T10:02:16;100256.88;;;13.72;100.00
23261;BME280;11799;47.740;-3.390;2023-04-23T10:04:43;100243.28;;;13.75;100.00
23261;BME280;11799;47.740;-3.390;2023-04-23T10:07:08;100247.16;;;13.80;100.00
23261;BME280;11799;47.740;-3.390;2023-04-23T10:09:39;100252.25;;;13.74;100.00
23261;BME280;11799;47.740;-3.390;2023-04-23T10:12:06;100260.56;;;13.79;100.00
23261;BME280;11799;47.740;-3.390;2023-04-23T10:14:32;100258.44;;;13.82;100.00
23261;BME280;11799;47.740;-3.390;2023-04-23T10:17:02;100255.66;;;13.84;100.00
23261;BME280;11799;47.740;-3.390;2023-04-23T10:19:31;100259.44;;;13.81;100.00
23261;BME280;11799;47.740;-3.390;2023-04-23T10:22:03;100261.78;;;13.84;100.00
23261;BME280;11799;47.740;-3.390;2023-04-23T10:24:34;100271.09;;;13.88;100.00
23261;BME280;11799;47.740;-3.390;2023-04-23T10:27:03;100275.41;;;13.89;100.00
23261;BME280;11799;47.740;-3.390;2023-04-23T10:29:30;100279.09;;;13.97;100.00
23261;BME280;11799;47.740;-3.390;2023-04-23T10:32:03;100284.25;;;13.98;100.00
23261;BME280;11799;47.740;-3.390;2023-04-23T10:34:31;100284.88;;;13.92;100.00
23261;BME280;11799;47.740;-3.390;2023-04-23T10:36:59;100290.41;;;13.99;100.00
23261;BME280;11799;47.740;-3.390;2023-04-23T10:39:27;100294.56;;;14.01;100.00
23261;BME280;11799;47.740;-3.390;2023-04-23T10:41:54;100291.47;;;14.06;100.00
23261;BME280;11799;47.740;-3.390;2023-04-23T10:44:21;100290.69;;;14.13;100.00
23261;BME280;11799;47.740;-3.390;2023-04-23T10:46:52;100293.34;;;14.13;100.00
23261;BME280;11799;47.740;-3.390;2023-04-23T10:49:18;100296.53;;;14.17;100.00
23261;BME280;11799;47.740;-3.390;2023-04-23T10:51:46;100295.38;;;14.19;100.00
23261;BME280;11799;47.740;-3.390;2023-04-23T10:54:16;100305.19;;;14.19;100.00
23261;BME280;11799;47.740;-3.390;2023-04-23T10:56:43;100306.00;;;14.19;100.00
23261;BME280;11799;47.740;-3.390;2023-04-23T10:59:21;100297.56;;;14.24;100.00
23261;BME280;11799;47.740;-3.390;2023-04-23T11:01:49;100311.16;;;14.21;100.00
23261;BME280;11799;47.740;-3.390;2023-04-23T11:04:19;100333.63;;;14.27;100.00
23261;BME280;11799;47.740;-3.390;2023-04-23T11:06:51;100314.81;;;14.20;100.00
23261;BME280;11799;47.740;-3.390;2023-04-23T11:12:01;100333.94;;;14.24;100.00
23261;BME280;11799;47.740;-3.390;2023-04-23T11:14:40;100333.31;;;14.30;100.00
23261;BME280;11799;47.740;-3.390;2023-04-23T11:17:06;100346.97;;;14.35;100.00
23261;BME280;11799;47.740;-3.390;2023-04-23T11:19:38;100343.25;;;14.28;100.00
23261;BME280;11799;47.740;-3.390;2023-04-23T11:22:15;100337.09;;;14.27;100.00
23261;BME280;11799;47.740;-3.390;2023-04-23T11:24:45;100340.59;;;14.28;100.00
23261;BME280;11799;47.740;-3.390;2023-04-23T11:27:12;100350.69;;;14.24;100.00
23261;BME280;11799;47.740;-3.390;2023-04-23T11:29:39;100345.31;;;14.16;100.00
23261;BME280;11799;47.740;-3.390;2023-04-23T11:32:05;100356.47;;;14.19;100.00
23261;BME280;11799;47.740;-3.390;2023-04-23T11:34:41;100351.00;;;14.21;100.00
23261;BME280;11799;47.740;-3.390;2023-04-23T11:37:12;100349.03;;;14.23;100.00
23261;BME280;11799;47.740;-3.390;2023-04-23T11:39:45;100357.66;;;14.25;100.00
23261;BME280;11799;47.740;-3.390;2023-04-23T11:42:15;100355.31;;;14.22;100.00
23261;BME280;11799;47.740;-3.390;2023-04-23T11:44:43;100371.09;;;14.24;100.00
23261;BME280;11799;47.740;-3.390;2023-04-23T11:47:13;100368.00;;;14.28;100.00
23261;BME280;11799;47.740;-3.390;2023-04-23T11:49:40;100371.84;;;14.34;100.00
23261;BME280;11799;47.740;-3.390;2023-04-23T11:52:10;100374.34;;;14.35;100.00
23261;BME280;11799;47.740;-3.390;2023-04-23T11:54:39;100378.22;;;14.41;100.00
23261;BME280;11799;47.740;-3.390;2023-04-23T11:57:05;100368.38;;;14.33;100.00
23261;BME280;11799;47.740;-3.390;2023-04-23T11:59:31;100376.69;;;14.38;100.00
23261;BME280;11799;47.740;-3.390;2023-04-23T12:01:58;100377.75;;;14.45;100.00
23261;BME280;11799;47.740;-3.390;2023-04-23T12:04:28;100384.59;;;14.48;100.00
23261;BME280;11799;47.740;-3.390;2023-04-23T12:06:55;100383.59;;;14.49;100.00
23261;BME280;11799;47.740;-3.390;2023-04-23T12:09:24;100387.00;;;14.59;100.00
23261;BME280;11799;47.740;-3.390;2023-04-23T12:11:50;100387.72;;;14.69;100.00
23261;BME280;11799;47.740;-3.390;2023-04-23T12:14:16;100395.91;;;14.76;100.00
23261;BME280;11799;47.740;-3.390;2023-04-23T12:16:43;100400.91;;;14.79;100.00
23261;BME280;11799;47.740;-3.390;2023-04-23T12:19:15;100407.66;;;14.91;100.00
23261;BME280;11799;47.740;-3.390;2023-04-23T12:24:13;100405.41;;;15.12;100.00
23261;BME280;11799;47.740;-3.390;2023-04-23T12:26:40;100403.94;;;15.18;100.00
23261;BME280;11799;47.740;-3.390;2023-04-23T12:29:06;100402.13;;;15.18;100.00
23261;BME280;11799;47.740;-3.390;2023-04-23T12:31:32;100411.66;;;15.29;100.00
23261;BME280;11799;47.740;-3.390;2023-04-23T12:34:07;100400.22;;;15.37;100.00
23261;BME280;11799;47.740;-3.390;2023-04-23T12:36:37;100412.56;;;15.46;100.00